WetterOnline ( https://www.wetteronline.de )

Wetter aktuell Seeon

Aktuelles Wetter: Chieming (553m)

6-stündlich | Neueste Meldungen
Ortszeit Temperatur Wetter
Sa, 11.07. 20:00 16.5° C wolkig
Sa, 11.07. 14:00 15.5° C Sprühregen
Sa, 11.07. 8:00 14.6° C Regen
Sa, 11.07. 2:00 16.7° C bewölkt
Fr, 10.07. 20:00 20.4° C bedeckt
Fr, 10.07. 14:00 29.4° C wolkenlos
Fr, 10.07. 8:00 20.7° C wolkenlos
Fr, 10.07. 2:00 16.1° C fast wolkenlos
Ortszeit Temperatur Wetter
So, 12.07. 1:00 10.9° C bewölkt
So, 12.07. 0:50 10.9° C bewölkt
So, 12.07. 0:40 10.9° C wolkig
So, 12.07. 0:30 11.0° C leicht bewölkt
So, 12.07. 0:20 11.0° C fast wolkenlos
So, 12.07. 0:10 11.0° C fast wolkenlos
So, 12.07. 0:00 11.7° C wolkenlos
Sa, 11.07. 23:30 11.8° C fast wolkenlos
Sa, 11.07. 23:00 12.2° C leicht bewölkt
Sa, 11.07. 22:30 12.1° C fast wolkenlos
Sa, 11.07. 22:00 12.8° C bewölkt
Ortszeit Relative Feuchte Sichtweite
Sa, 11.07. 20:00 79% 50 km
Sa, 11.07. 14:00 84% 20 km
Sa, 11.07. 8:00 98% 9 km
Sa, 11.07. 2:00 89% 60 km
Fr, 10.07. 20:00 74% 50 km
Fr, 10.07. 14:00 42% 55 km
Fr, 10.07. 8:00 66% >70 km
Fr, 10.07. 2:00 82% 65 km
Ortszeit Relative Feuchte Sichtweite
So, 12.07. 1:00 98% 23 km
So, 12.07. 0:50 98% -
So, 12.07. 0:40 97% -
So, 12.07. 0:30 97% 30 km
So, 12.07. 0:20 97% -
So, 12.07. 0:10 96% -
So, 12.07. 0:00 95% 55 km
Sa, 11.07. 23:30 93% 60 km
Sa, 11.07. 23:00 93% 50 km
Sa, 11.07. 22:30 95% 55 km
Sa, 11.07. 22:00 92% 55 km
Ortszeit Niederschlagsmenge Niederschlagsart
Sa, 11.07. 20:00 8 l/m2 in 12 Std. Regen
Sa, 11.07. 14:00 6 l/m2 in 6 Std. Regen
Sa, 11.07. 8:00 14 l/m2 in 12 Std. Regen
Sa, 11.07. 2:00 3 l/m2 in 6 Std. Regenschauer
Fr, 10.07. 20:00 0.2 l/m2 in 12 Std. Regen
Fr, 10.07. 14:00 0.0 l/m2 in 6 Std. -
Fr, 10.07. 8:00 0.0 l/m2 in 12 Std. -
Fr, 10.07. 2:00 0.0 l/m2 in 6 Std. -
Ortszeit Niederschlagsmenge Niederschlagsart
So, 12.07. 1:00 0.0 l/m2 in 1 Std. -
So, 12.07. 0:50 keine Meldung -
So, 12.07. 0:40 keine Meldung -
So, 12.07. 0:30 0.0 l/m2 in 1 Std. -
So, 12.07. 0:20 keine Meldung -
So, 12.07. 0:10 keine Meldung -
So, 12.07. 0:00 0.0 l/m2 in 1 Std. -
Sa, 11.07. 23:30 0.0 l/m2 in 1 Std. -
Sa, 11.07. 23:00 0.1 l/m2 in 1 Std. Regen
Sa, 11.07. 22:30 0.1 l/m2 in 1 Std. Schneeregen
Sa, 11.07. 22:00 0.5 l/m2 in 1 Std. Regen
Ortszeit Stärke Spitze Richtung
km/h Bft. km/h Grad Sektor
Sa, 11.07. 20:00 7 2 25 270° W
Sa, 11.07. 14:00 13 3 24 280° W
Sa, 11.07. 8:00 9 2 31 190° S
Sa, 11.07. 2:00 11 2 40 360° N
Fr, 10.07. 20:00 18 3 50 200° S
Fr, 10.07. 14:00 9 2 19 270° W
Fr, 10.07. 8:00 9 2 15 200° S
Fr, 10.07. 2:00 7 2 18 110° O
Ortszeit Stärke Spitze Richtung
km/h Bft. km/h Grad Sektor
So, 12.07. 1:00 9 2 11 60° NO
So, 12.07. 0:50 9 2 - 60° NO
So, 12.07. 0:40 7 2 - 60° NO
So, 12.07. 0:30 9 2 11 80° O
So, 12.07. 0:20 9 2 - 80° O
So, 12.07. 0:10 7 2 - 80° O
So, 12.07. 0:00 4 1 14 130° SO
Sa, 11.07. 23:30 11 2 14 150° SO
Sa, 11.07. 23:00 9 2 13 160° S
Sa, 11.07. 22:30 7 2 11 120° SO
Sa, 11.07. 22:00 11 2 22 150° SO
Ortszeit Untergrenze Bedeckung Gattung
total tief tief mittel hoch
Sa, 11.07. 20:00 1800 m 7/8 1/8 - - -
Sa, 11.07. 14:00 570 m 8/8 8/8 - - -
Sa, 11.07. 8:00 60 m 8/8 8/8 - - -
Sa, 11.07. 2:00 150 m 7/8 7/8 - - -
Fr, 10.07. 20:00 3300 m 8/8 8/8 - - -
Fr, 10.07. 14:00 - 0/8 0/8 - - -
Fr, 10.07. 8:00 - 0/8 0/8 - - -
Fr, 10.07. 2:00 10500 m 1/8 0/8 - - -
Ortszeit Bedeckungsgrad in Achtel und Wolkenuntergrenze
So, 12.07. 1:00 2(1500m) 7(2400m)
So, 12.07. 0:50 2(1500m) 7(2400m)
So, 12.07. 0:40 3(1500m) 5(2400m)
So, 12.07. 0:30 1(1500m) 3(2400m)
So, 12.07. 0:20 1(1500m)
So, 12.07. 0:10 1(1500m)
So, 12.07. 0:00 keine Wolken
Sa, 11.07. 23:30 1(2700m)
Sa, 11.07. 23:00 2(2400m)
Sa, 11.07. 22:30 1(2400m)
Sa, 11.07. 22:00 3(1230m) 7(2100m) 7(2700m)
Ortszeit Luftdruck NN (hPa) Tendenz (hPa in 3 Std.)
Sa, 11.07. 20:00 1023 + 0,2
Sa, 11.07. 14:00 1022 + 1,1
Sa, 11.07. 8:00 1020 + 1,5
Sa, 11.07. 2:00 1017 + 0,5
Fr, 10.07. 20:00 1013 + 2,4
Fr, 10.07. 14:00 1009 - 1,0
Fr, 10.07. 8:00 1013 0,0
Fr, 10.07. 2:00 1015 - 0,1
Ortszeit Luftdruck NN (hPa) Tendenz (hPa in 3 Std.)
So, 12.07. 1:00 1026 + 0,5
So, 12.07. 0:50 1026 keine Meldung
So, 12.07. 0:40 1025 keine Meldung
So, 12.07. 0:30 1025 + 0,6
So, 12.07. 0:20 1025 keine Meldung
So, 12.07. 0:10 1025 keine Meldung
So, 12.07. 0:00 1025 + 0,7
Sa, 11.07. 23:30 1025 + 1,2
Sa, 11.07. 23:00 1025 + 1,3
Sa, 11.07. 22:30 1025 + 1,6
Sa, 11.07. 22:00 1025 + 1,4
Ortszeit Schneehöhe (cm)
Sa, 11.07. 20:00 -
Sa, 11.07. 14:00 -
Sa, 11.07. 8:00 -
Sa, 11.07. 2:00 -
Fr, 10.07. 20:00 -
Fr, 10.07. 14:00 -
Fr, 10.07. 8:00 -
Fr, 10.07. 2:00 -
Ortszeit Schneehöhe (cm)
So, 12.07. 1:00 -
So, 12.07. 0:50 -
So, 12.07. 0:40 -
So, 12.07. 0:30 -
So, 12.07. 0:20 -
So, 12.07. 0:10 -
So, 12.07. 0:00 -
Sa, 11.07. 23:30 -
Sa, 11.07. 23:00 -
Sa, 11.07. 22:30 -
Sa, 11.07. 22:00 -
Link zu dieser Seite / Seite empfehlen

Das Wetter in ...